createdAt,value
2022-11-29T00:00:23.061Z,101284.22
2022-11-29T00:02:57.434Z,101283.50
2022-11-29T00:05:26.120Z,101288.25
2022-11-29T00:07:55.241Z,101275.97
2022-11-29T00:10:26.275Z,101294.69
2022-11-29T00:13:01.716Z,101286.84
2022-11-29T00:15:30.021Z,101287.91
2022-11-29T00:17:58.315Z,101281.00
2022-11-29T00:20:29.600Z,101288.25
2022-11-29T00:23:09.039Z,101285.75
2022-11-29T00:25:39.821Z,101285.94
2022-11-29T00:28:08.100Z,101288.72
2022-11-29T00:30:39.319Z,101287.13
2022-11-29T00:33:08.995Z,101286.41
2022-11-29T00:35:37.305Z,101285.69
2022-11-29T00:38:12.905Z,101292.81
2022-11-29T00:40:41.215Z,101293.69
2022-11-29T00:43:09.551Z,101283.16
2022-11-29T00:45:39.986Z,101288.63
2022-11-29T00:48:11.475Z,101287.88
2022-11-29T00:50:39.780Z,101283.44
2022-11-29T00:53:08.065Z,101283.50
2022-11-29T00:55:38.939Z,101279.19
2022-11-29T00:58:07.317Z,101283.81
2022-11-29T01:00:38.807Z,101281.28
2022-11-29T01:03:07.141Z,101284.00
2022-11-29T01:05:35.467Z,101284.06
2022-11-29T01:08:03.836Z,101285.06
2022-11-29T01:10:32.212Z,101290.41
2022-11-29T01:13:03.640Z,101292.34
2022-11-29T01:15:34.331Z,101292.44
2022-11-29T01:18:02.815Z,101288.00
2022-11-29T01:20:31.158Z,101297.75
2022-11-29T01:23:04.992Z,101297.88
2022-11-29T01:25:36.157Z,101295.41
2022-11-29T01:28:04.506Z,101303.53
2022-11-29T01:30:32.918Z,101299.16
2022-11-29T01:33:01.615Z,101302.81
2022-11-29T01:35:29.986Z,101294.94
2022-11-29T01:38:00.617Z,101300.25
2022-11-29T01:40:28.906Z,101305.63
2022-11-29T01:42:57.178Z,101300.44
2022-11-29T01:45:31.520Z,101309.38
2022-11-29T01:48:02.762Z,101306.94
2022-11-29T01:50:34.052Z,101301.81
2022-11-29T01:53:02.492Z,101297.53
2022-11-29T01:55:34.774Z,101296.75
2022-11-29T01:58:03.570Z,101298.63
2022-11-29T02:00:34.291Z,101299.53
2022-11-29T02:03:14.056Z,101302.28
2022-11-29T02:05:51.527Z,101303.19
2022-11-29T02:08:34.761Z,101300.56
2022-11-29T02:11:15.012Z,101307.66
2022-11-29T02:14:13.012Z,101296.31
2022-11-29T02:17:10.870Z,101292.03
2022-11-29T02:19:57.066Z,101292.88
2022-11-29T02:22:32.490Z,101290.25
2022-11-29T02:25:12.652Z,101286.81
2022-11-29T02:27:53.606Z,101288.56
2022-11-29T02:30:45.191Z,101288.56
2022-11-29T02:33:41.056Z,101288.59
2022-11-29T02:36:20.629Z,101292.22
2022-11-29T02:39:27.201Z,101295.78
2022-11-29T02:42:55.595Z,101302.06
2022-11-29T02:46:04.143Z,101307.47
2022-11-29T02:49:19.936Z,101303.94
2022-11-29T02:52:09.187Z,101310.16
2022-11-29T02:55:15.217Z,101309.34
2022-11-29T02:58:04.489Z,101311.03
2022-11-29T03:00:37.751Z,101312.81
2022-11-29T03:03:30.036Z,101311.94
2022-11-29T03:06:27.026Z,101317.16
2022-11-29T03:09:12.522Z,101308.38
2022-11-29T03:12:09.526Z,101317.25
2022-11-29T03:14:57.228Z,101319.09
2022-11-29T03:18:01.020Z,101320.06
2022-11-29T03:21:14.031Z,101319.22
2022-11-29T03:23:51.303Z,101319.38
2022-11-29T03:26:42.201Z,101320.38
2022-11-29T03:29:31.285Z,101333.72
2022-11-29T03:32:28.406Z,101334.72
2022-11-29T03:35:17.241Z,101339.25
2022-11-29T03:38:07.386Z,101334.94
2022-11-29T03:40:43.747Z,101335.94
2022-11-29T03:43:23.306Z,101332.47
2022-11-29T03:46:06.398Z,101332.56
2022-11-29T03:48:57.544Z,101327.34
2022-11-29T03:52:16.986Z,101332.75
2022-11-29T03:55:06.026Z,101326.56
2022-11-29T03:58:37.706Z,101339.81
2022-11-29T04:01:27.120Z,101338.94
2022-11-29T04:04:27.144Z,101342.47
2022-11-29T04:07:06.988Z,101341.63
2022-11-29T04:09:53.565Z,101343.41
2022-11-29T04:12:52.572Z,101339.91
2022-11-29T04:16:06.290Z,101348.78
2022-11-29T04:18:45.412Z,101345.19
2022-11-29T04:21:52.020Z,101344.28
2022-11-29T04:24:32.231Z,101355.69
2022-11-29T04:27:15.307Z,101362.72
2022-11-29T04:30:13.401Z,101356.50
2022-11-29T04:33:25.671Z,101357.41
2022-11-29T04:36:07.771Z,101352.19
2022-11-29T04:38:50.191Z,101355.78
2022-11-29T04:41:50.511Z,101358.38
2022-11-29T04:44:43.703Z,101354.81
2022-11-29T04:47:54.001Z,101353.91
2022-11-29T04:50:35.421Z,101360.13
2022-11-29T04:53:52.226Z,101353.06
2022-11-29T04:56:46.837Z,101361.94
2022-11-29T04:59:25.224Z,101355.78
2022-11-29T05:02:14.475Z,101357.59
2022-11-29T05:05:02.234Z,101356.66
2022-11-29T05:07:41.907Z,101365.50
2022-11-29T05:10:33.800Z,101361.13
2022-11-29T05:13:43.415Z,101367.38
2022-11-29T05:16:29.708Z,101361.28
2022-11-29T05:19:19.690Z,101364.88
2022-11-29T05:22:15.637Z,101371.03
2022-11-29T05:25:15.633Z,101370.16
2022-11-29T05:28:13.486Z,101373.75
2022-11-29T05:31:13.841Z,101386.13
2022-11-29T05:34:14.727Z,101380.03
2022-11-29T05:36:59.276Z,101387.09
2022-11-29T05:40:09.572Z,101382.69
2022-11-29T05:42:59.566Z,101382.69
2022-11-29T05:45:44.138Z,101377.38
2022-11-29T05:49:05.004Z,101385.38
2022-11-29T05:51:56.870Z,101388.97
2022-11-29T05:54:37.266Z,101382.84
2022-11-29T05:57:50.934Z,101379.31
2022-11-29T06:00:30.400Z,101376.75
2022-11-29T06:03:16.525Z,101389.97
2022-11-29T06:06:01.918Z,101385.47
2022-11-29T06:09:15.631Z,101392.44
2022-11-29T06:11:51.808Z,101384.50
2022-11-29T06:14:38.111Z,101390.69
2022-11-29T06:18:00.256Z,101390.78
2022-11-29T06:20:43.872Z,101397.91
2022-11-29T06:23:50.694Z,101400.56
2022-11-29T06:26:34.570Z,101398.78
2022-11-29T06:29:17.636Z,101393.53
2022-11-29T06:31:52.589Z,101398.84
2022-11-29T06:34:48.129Z,101399.84
2022-11-29T06:37:29.065Z,101405.16
2022-11-29T06:39:57.735Z,101404.28
2022-11-29T06:42:26.026Z,101406.09
2022-11-29T06:44:54.668Z,101408.78
2022-11-29T06:47:25.698Z,101412.38
2022-11-29T06:50:28.571Z,101417.78
2022-11-29T06:53:06.286Z,101418.75
2022-11-29T06:55:56.450Z,101421.38
2022-11-29T06:58:43.120Z,101417.00
2022-11-29T07:01:40.967Z,101417.91
2022-11-29T07:04:46.160Z,101417.03
2022-11-29T07:07:22.611Z,101417.09
2022-11-29T07:10:00.533Z,101415.34
2022-11-29T07:12:33.236Z,101419.81
2022-11-29T07:15:07.471Z,101418.13
2022-11-29T07:17:39.698Z,101414.75
2022-11-29T07:20:23.146Z,101413.94
2022-11-29T07:23:09.865Z,101413.97
2022-11-29T07:26:07.416Z,101414.00
2022-11-29T07:29:10.403Z,101412.28
2022-11-29T07:32:16.177Z,101407.00
2022-11-29T07:34:47.461Z,101401.78
2022-11-29T07:37:23.420Z,101412.34
2022-11-29T07:40:07.171Z,101409.75
2022-11-29T07:43:03.680Z,101409.78
2022-11-29T07:45:38.496Z,101408.06
2022-11-29T07:48:10.127Z,101406.34
2022-11-29T07:50:40.780Z,101410.91
2022-11-29T07:53:19.700Z,101399.59
2022-11-29T07:55:48.265Z,101397.03
2022-11-29T07:58:21.598Z,101397.97
2022-11-29T08:01:02.320Z,101396.22
2022-11-29T08:03:39.773Z,101396.22
2022-11-29T08:06:16.707Z,101405.91
2022-11-29T08:08:47.396Z,101395.34
2022-11-29T08:11:31.834Z,101390.94
2022-11-29T08:14:06.773Z,101395.38
2022-11-29T08:16:51.721Z,101396.31
2022-11-29T08:19:25.552Z,101393.72
2022-11-29T08:21:58.825Z,101392.94
2022-11-29T08:24:44.174Z,101390.31
2022-11-29T08:27:16.557Z,101385.06
2022-11-29T08:29:47.952Z,101392.97
2022-11-29T08:32:21.387Z,101392.06
2022-11-29T08:34:52.756Z,101383.25
2022-11-29T08:37:21.186Z,101385.03
2022-11-29T08:39:49.646Z,101391.16
2022-11-29T08:42:25.070Z,101377.09
2022-11-29T08:45:05.386Z,101378.88
2022-11-29T08:47:41.086Z,101374.50
2022-11-29T08:50:17.717Z,101374.41
2022-11-29T08:53:09.207Z,101377.94
2022-11-29T08:55:43.626Z,101377.88
2022-11-29T08:58:33.756Z,101377.88
2022-11-29T09:01:02.097Z,101380.53
2022-11-29T09:03:48.907Z,101382.28
2022-11-29T09:06:18.459Z,101386.75
2022-11-29T09:09:07.619Z,101392.94
2022-11-29T09:11:49.922Z,101392.09
2022-11-29T09:14:21.731Z,101397.41
2022-11-29T09:16:50.051Z,101393.94
2022-11-29T09:19:25.857Z,101393.06
2022-11-29T09:21:57.539Z,101394.00
2022-11-29T09:24:34.833Z,101394.91
2022-11-29T09:27:09.482Z,101400.19
2022-11-29T09:29:40.226Z,101399.38
2022-11-29T09:32:11.782Z,101404.63
2022-11-29T09:34:45.321Z,101407.28
2022-11-29T09:37:19.461Z,101401.16
2022-11-29T09:39:53.185Z,101409.94
2022-11-29T09:42:59.951Z,101406.50
2022-11-29T09:45:40.723Z,101400.38
2022-11-29T09:48:39.479Z,101397.81
2022-11-29T09:51:51.376Z,101409.34
2022-11-29T09:54:54.251Z,101405.00
2022-11-29T09:57:30.946Z,101403.22
2022-11-29T10:00:05.361Z,101408.47
2022-11-29T10:02:48.444Z,101414.59
2022-11-29T10:05:43.817Z,101401.47
2022-11-29T10:08:45.232Z,101407.63
2022-11-29T10:11:40.687Z,101411.16
2022-11-29T10:14:21.228Z,101420.81
2022-11-29T10:17:24.847Z,101417.31
2022-11-29T10:20:16.417Z,101413.81
2022-11-29T10:23:25.039Z,101418.22
2022-11-29T10:26:03.566Z,101412.94
2022-11-29T10:28:37.661Z,101416.50
2022-11-29T10:31:34.968Z,101421.75
2022-11-29T10:34:16.426Z,101419.13
2022-11-29T10:37:03.621Z,101417.41
2022-11-29T10:43:03.541Z,101424.44
2022-11-29T10:45:40.487Z,101424.44
2022-11-29T10:48:37.582Z,101429.72
2022-11-29T10:51:29.069Z,101432.38
2022-11-29T10:54:03.605Z,101432.38
2022-11-29T10:56:38.826Z,101433.25
2022-11-29T10:59:22.665Z,101435.91
2022-11-29T11:01:58.196Z,101430.63
2022-11-29T11:04:38.537Z,101430.66
2022-11-29T11:07:08.091Z,101423.63
2022-11-29T11:09:53.340Z,101426.25
2022-11-29T11:12:31.331Z,101441.19
2022-11-29T11:15:27.261Z,101437.69
2022-11-29T11:18:25.011Z,101445.59
2022-11-29T11:21:05.440Z,101436.81
2022-11-29T11:23:42.352Z,101443.81
2022-11-29T11:26:17.206Z,101440.34
2022-11-29T11:28:57.449Z,101443.81
2022-11-29T11:31:35.626Z,101438.56
2022-11-29T11:34:56.804Z,101445.59
2022-11-29T11:37:32.815Z,101437.69
2022-11-29T11:40:31.525Z,101445.59
2022-11-29T11:43:07.311Z,101435.03
2022-11-29T11:45:50.796Z,101440.31
2022-11-29T11:48:23.147Z,101441.19
2022-11-29T11:51:03.632Z,101444.69
2022-11-29T11:53:43.462Z,101448.19
2022-11-29T11:56:24.619Z,101440.31
2022-11-29T11:59:18.644Z,101436.75
2022-11-29T12:01:52.023Z,101443.78
2022-11-29T12:04:39.597Z,101437.63
2022-11-29T12:08:07.765Z,101442.91
2022-11-29T12:10:37.698Z,101448.13
2022-11-29T12:13:25.430Z,101440.28
2022-11-29T12:16:07.930Z,101452.53
2022-11-29T12:19:36.907Z,101459.56
2022-11-29T12:22:29.271Z,101451.63
2022-11-29T12:25:07.164Z,101442.00
2022-11-29T12:27:45.970Z,101445.50
2022-11-29T12:30:30.340Z,101446.34
2022-11-29T12:33:46.109Z,101443.72
2022-11-29T12:36:48.748Z,101437.59
2022-11-29T12:40:02.254Z,101440.22
2022-11-29T12:42:48.045Z,101436.72
2022-11-29T12:45:56.597Z,101442.81
2022-11-29T12:49:08.115Z,101438.41
2022-11-29T12:52:12.467Z,101437.47
2022-11-29T12:55:10.671Z,101447.09
2022-11-29T12:58:21.111Z,101442.69
2022-11-29T13:01:32.587Z,101445.31
2022-11-29T13:04:22.672Z,101445.31
2022-11-29T13:07:22.123Z,101445.28
2022-11-29T13:10:18.103Z,101437.41
2022-11-29T13:13:03.965Z,101451.41
2022-11-29T13:15:53.437Z,101456.66
2022-11-29T13:18:52.788Z,101458.44
2022-11-29T13:22:06.999Z,101461.88
2022-11-29T13:24:44.088Z,101467.16
2022-11-29T13:27:29.600Z,101457.53
2022-11-29T13:30:14.028Z,101461.91
2022-11-29T13:33:08.909Z,101457.50
2022-11-29T13:36:10.803Z,101464.47
2022-11-29T13:39:00.331Z,101469.72
2022-11-29T13:42:04.797Z,101473.16
2022-11-29T13:44:47.671Z,101469.66
2022-11-29T13:47:27.148Z,101476.66
2022-11-29T13:50:32.422Z,101476.63
2022-11-29T13:53:23.244Z,101480.97
2022-11-29T13:56:36.697Z,101481.81
2022-11-29T13:59:34.034Z,101486.19
2022-11-29T14:02:28.452Z,101480.06
2022-11-29T14:05:08.907Z,101485.31
2022-11-29T14:08:18.018Z,101482.63
2022-11-29T14:10:53.983Z,101495.72
2022-11-29T14:13:38.486Z,101495.69
2022-11-29T14:16:37.225Z,101490.41
2022-11-29T14:19:57.082Z,101498.25
2022-11-29T14:22:36.047Z,101498.25
2022-11-29T14:25:51.030Z,101499.94
2022-11-29T14:28:27.002Z,101505.25
2022-11-29T14:31:07.241Z,101508.69
2022-11-29T14:34:24.374Z,101516.56
2022-11-29T14:37:24.240Z,101512.13
2022-11-29T14:40:17.786Z,101527.84
2022-11-29T14:42:59.132Z,101534.84
2022-11-29T14:45:41.582Z,101540.13
2022-11-29T14:48:40.074Z,101536.59
2022-11-29T14:51:31.868Z,101545.38
2022-11-29T14:54:21.268Z,101547.09
2022-11-29T14:56:58.312Z,101540.91
2022-11-29T15:00:37.327Z,101535.75
2022-11-29T15:03:20.824Z,101539.22
2022-11-29T15:06:08.592Z,101538.28
2022-11-29T15:09:12.902Z,101547.03
2022-11-29T15:12:12.052Z,101544.47
2022-11-29T15:15:21.858Z,101540.09
2022-11-29T15:17:51.942Z,101555.78
2022-11-29T15:21:34.109Z,101559.22
2022-11-29T15:24:00.245Z,101566.28
2022-11-29T15:26:34.665Z,101560.16
2022-11-29T15:29:27.341Z,101557.53
2022-11-29T15:32:08.236Z,101559.31
2022-11-29T15:34:59.049Z,101564.56
2022-11-29T15:37:38.367Z,101570.72
2022-11-29T15:40:30.876Z,101567.28
2022-11-29T15:43:35.090Z,101563.81
2022-11-29T15:46:48.948Z,101579.59
2022-11-29T15:49:23.625Z,101588.31
2022-11-29T15:52:20.567Z,101591.84
2022-11-29T15:55:21.601Z,101588.41
2022-11-29T15:58:05.398Z,101599.78
2022-11-29T16:00:55.367Z,101594.59
2022-11-29T16:03:34.241Z,101596.41
2022-11-29T16:10:33.461Z,101589.53
2022-11-29T16:13:42.372Z,101594.00
2022-11-29T16:16:45.576Z,101597.59
2022-11-29T16:19:37.301Z,101600.28
2022-11-29T16:22:36.020Z,101602.06
2022-11-29T16:28:18.803Z,101601.34
2022-11-29T16:31:17.812Z,101599.63
2022-11-29T16:33:55.321Z,101601.44
2022-11-29T16:36:27.610Z,101601.47
2022-11-29T16:39:07.688Z,101600.66
2022-11-29T16:45:41.130Z,101604.22
2022-11-29T16:48:31.154Z,101613.03
2022-11-29T16:51:19.870Z,101615.69
2022-11-29T16:53:59.405Z,101604.34
2022-11-29T16:56:41.766Z,101618.38
2022-11-29T16:59:26.019Z,101613.13
2022-11-29T17:02:08.379Z,101619.31
2022-11-29T17:04:50.211Z,101608.75
2022-11-29T17:07:36.658Z,101609.66
2022-11-29T17:10:09.647Z,101615.81
2022-11-29T17:12:48.016Z,101612.28
2022-11-29T17:15:26.863Z,101621.06
2022-11-29T17:18:08.268Z,101621.03
2022-11-29T17:21:03.885Z,101614.88
2022-11-29T17:23:39.312Z,101611.34
2022-11-29T17:26:12.773Z,101609.53
2022-11-29T17:28:51.047Z,101609.53
2022-11-29T17:31:25.331Z,101605.09
2022-11-29T17:34:03.786Z,101614.72
2022-11-29T17:36:51.706Z,101620.00
2022-11-29T17:39:23.569Z,101628.75
2022-11-29T17:42:02.466Z,101633.16
2022-11-29T17:44:36.741Z,101626.13
2022-11-29T17:47:17.207Z,101633.13
2022-11-29T17:49:59.445Z,101632.22
2022-11-29T17:52:30.030Z,101642.72
2022-11-29T17:55:01.391Z,101646.19
2022-11-29T17:57:36.530Z,101641.75
2022-11-29T18:00:09.701Z,101642.59
2022-11-29T18:02:40.443Z,101648.69
2022-11-29T18:05:19.568Z,101643.38
2022-11-29T18:08:10.614Z,101638.97
2022-11-29T18:10:44.361Z,101645.09
2022-11-29T18:13:18.986Z,101636.25
2022-11-29T18:15:52.907Z,101633.59
2022-11-29T18:18:28.662Z,101634.41
2022-11-29T18:21:02.839Z,101631.72
2022-11-29T18:23:41.821Z,101636.00
2022-11-29T18:26:22.946Z,101624.50
2022-11-29T18:29:06.510Z,101627.03
2022-11-29T18:31:41.984Z,101623.47
2022-11-29T18:34:34.821Z,101629.63
2022-11-29T18:37:03.496Z,101634.78
2022-11-29T18:39:34.259Z,101627.63
2022-11-29T18:42:02.599Z,101626.66
2022-11-29T18:44:33.323Z,101623.91
2022-11-29T18:47:07.663Z,101619.47
2022-11-29T18:49:35.948Z,101625.69
2022-11-29T18:52:06.622Z,101621.25
2022-11-29T18:54:43.854Z,101618.50
2022-11-29T18:57:15.306Z,101614.00
2022-11-29T18:59:43.612Z,101611.28
2022-11-29T19:02:17.095Z,101610.25
2022-11-29T19:04:55.829Z,101610.09
2022-11-29T19:07:30.239Z,101595.00
2022-11-29T19:09:58.792Z,101602.91
2022-11-29T19:12:33.389Z,101596.63
2022-11-29T19:15:04.205Z,101592.13
2022-11-29T19:17:43.351Z,101591.19
2022-11-29T19:20:15.150Z,101589.19
2022-11-29T19:25:32.553Z,101580.06
2022-11-29T19:28:12.561Z,101576.34
2022-11-29T19:30:51.806Z,101578.84
2022-11-29T19:33:28.747Z,101571.63
2022-11-29T19:36:04.510Z,101569.66
2022-11-29T19:38:36.230Z,101565.09
2022-11-29T19:41:19.512Z,101564.13
2022-11-29T19:43:53.588Z,101550.84
2022-11-29T19:46:35.095Z,101551.78
2022-11-29T19:49:13.641Z,101554.22
2022-11-29T19:51:47.591Z,101543.41
2022-11-29T19:54:19.309Z,101545.03
2022-11-29T19:56:48.165Z,101539.47
2022-11-29T19:59:21.042Z,101546.47
2022-11-29T20:01:52.272Z,101539.38
2022-11-29T20:04:20.650Z,101530.53
2022-11-29T20:06:52.537Z,101518.16
2022-11-29T20:09:23.470Z,101518.97
2022-11-29T20:11:51.824Z,101519.53
2022-11-29T20:14:22.087Z,101513.97
2022-11-29T20:19:44.526Z,101510.91
2022-11-29T20:22:19.269Z,101513.50
2022-11-29T20:24:55.193Z,101505.56
2022-11-29T20:27:28.746Z,101498.31
2022-11-29T20:29:58.791Z,101498.19
2022-11-29T20:32:27.412Z,101486.56
2022-11-29T20:34:56.381Z,101490.69
2022-11-29T20:37:38.623Z,101480.72
2022-11-29T20:40:42.999Z,101486.63
2022-11-29T20:43:46.814Z,101474.97
2022-11-29T20:46:35.965Z,101466.84
2022-11-29T20:49:06.920Z,101471.88
2022-11-29T20:51:57.610Z,101468.13
2022-11-29T20:54:31.203Z,101460.84
2022-11-29T20:57:05.981Z,101454.47
2022-11-29T20:59:41.502Z,101456.09
2022-11-29T21:02:14.789Z,101461.34
2022-11-29T21:04:45.320Z,101455.91
2022-11-29T21:07:14.646Z,101454.72
2022-11-29T21:09:45.666Z,101444.72
2022-11-29T21:12:16.661Z,101446.66
2022-11-29T21:14:48.555Z,101444.88
2022-11-29T21:17:19.641Z,101434.06
2022-11-29T21:19:51.326Z,101436.56
2022-11-29T21:22:48.178Z,101427.56
2022-11-29T21:25:34.346Z,101432.53
2022-11-29T21:28:03.783Z,101426.91
2022-11-29T21:30:34.146Z,101422.25
2022-11-29T21:33:02.831Z,101422.16
2022-11-29T21:35:31.216Z,101421.09
2022-11-29T21:38:02.051Z,101412.03
2022-11-29T21:40:30.408Z,101402.03
2022-11-29T21:43:01.300Z,101402.69
2022-11-29T21:45:29.690Z,101410.53
2022-11-29T21:48:01.636Z,101394.38
2022-11-29T21:50:32.270Z,101386.31
2022-11-29T21:53:00.529Z,101392.50
2022-11-29T21:55:40.111Z,101399.38
2022-11-29T21:58:08.426Z,101393.81
2022-11-29T22:00:38.959Z,101386.47
2022-11-29T22:03:09.666Z,101381.00
2022-11-29T22:05:38.020Z,101380.06
2022-11-29T22:08:09.866Z,101383.34
2022-11-29T22:10:38.190Z,101376.97
2022-11-29T22:13:06.985Z,101384.81
2022-11-29T22:15:40.590Z,101382.41
2022-11-29T22:18:14.906Z,101378.28
2022-11-29T22:20:45.310Z,101377.56
2022-11-29T22:23:13.524Z,101367.88
2022-11-29T22:25:41.806Z,101371.47
2022-11-29T22:28:15.965Z,101371.56
2022-11-29T22:30:44.267Z,101362.00
2022-11-29T22:33:15.220Z,101363.03
2022-11-29T22:35:53.076Z,101361.50
2022-11-29T22:38:23.157Z,101361.59
2022-11-29T22:40:51.704Z,101355.34
2022-11-29T22:43:25.066Z,101348.06
2022-11-29T22:46:02.973Z,101355.91
2022-11-29T22:48:36.997Z,101352.38
2022-11-29T22:51:22.917Z,101347.03
2022-11-29T22:54:04.662Z,101339.19
2022-11-29T22:56:36.418Z,101343.81
2022-11-29T22:59:05.724Z,101345.84
2022-11-29T23:01:45.000Z,101342.41
2022-11-29T23:04:21.592Z,101340.81
2022-11-29T23:06:50.451Z,101341.91
2022-11-29T23:09:24.768Z,101340.38
2022-11-29T23:11:54.948Z,101337.03
2022-11-29T23:14:25.981Z,101335.38
2022-11-29T23:16:54.791Z,101340.88
2022-11-29T23:19:26.037Z,101334.81
2022-11-29T23:22:00.267Z,101334.94
2022-11-29T23:24:31.136Z,101335.97
2022-11-29T23:27:02.656Z,101341.38
2022-11-29T23:29:34.006Z,101335.25
2022-11-29T23:32:02.424Z,101327.41
2022-11-29T23:34:34.455Z,101330.09
2022-11-29T23:37:02.891Z,101328.41
2022-11-29T23:39:54.083Z,101329.34
2022-11-29T23:42:22.357Z,101325.03
2022-11-29T23:44:53.461Z,101328.59
2022-11-29T23:47:24.055Z,101327.81
2022-11-29T23:49:55.106Z,101325.25
2022-11-29T23:52:31.625Z,101331.50
2022-11-29T23:55:02.189Z,101332.44
2022-11-29T23:57:55.222Z,101328.91
